createdAt,value
2023-06-11T00:00:42.794Z,2111.00
2023-06-11T00:01:42.882Z,2116.00
2023-06-11T00:02:42.805Z,2123.00
2023-06-11T00:03:42.874Z,2123.00
2023-06-11T00:04:42.781Z,2125.00
2023-06-11T00:05:42.740Z,2121.00
2023-06-11T00:06:42.720Z,2118.00
2023-06-11T00:07:42.734Z,2108.00
2023-06-11T00:08:42.737Z,2112.00
2023-06-11T00:09:42.721Z,2107.00
2023-06-11T00:10:42.740Z,2105.00
2023-06-11T00:11:42.806Z,2097.00
2023-06-11T00:12:42.756Z,2087.00
2023-06-11T00:13:42.751Z,2080.00
2023-06-11T00:14:42.756Z,2064.00
2023-06-11T00:15:42.785Z,2072.00
2023-06-11T00:16:42.837Z,2068.00
2023-06-11T00:17:42.885Z,2064.00
2023-06-11T00:18:42.882Z,2061.00
2023-06-11T00:19:42.825Z,2058.00
2023-06-11T00:20:42.826Z,2066.00
2023-06-11T00:21:42.869Z,2073.00
2023-06-11T00:22:42.860Z,2088.00
2023-06-11T00:23:42.907Z,2089.00
2023-06-11T00:24:42.901Z,2081.00
2023-06-11T00:25:42.914Z,2070.00
2023-06-11T00:26:42.925Z,2058.00
2023-06-11T00:27:42.917Z,2059.00
2023-06-11T00:28:42.933Z,2054.00
2023-06-11T00:29:42.949Z,2065.00
2023-06-11T00:30:42.942Z,2058.00
2023-06-11T00:31:43.012Z,2064.00
2023-06-11T00:32:43.003Z,2056.00
2023-06-11T00:33:42.997Z,2044.00
2023-06-11T00:34:43.001Z,2027.00
2023-06-11T00:35:42.993Z,2023.00
2023-06-11T00:36:43.019Z,2040.00
2023-06-11T00:37:43.035Z,2070.00
2023-06-11T00:38:43.066Z,2048.00
2023-06-11T00:39:43.056Z,2016.00
2023-06-11T00:40:43.062Z,1999.00
2023-06-11T00:41:43.073Z,1978.00
2023-06-11T00:42:43.092Z,1975.00
2023-06-11T00:43:43.086Z,1972.00
2023-06-11T00:44:43.117Z,1973.00
2023-06-11T00:45:43.148Z,1969.00
2023-06-11T00:46:43.132Z,1979.00
2023-06-11T00:47:43.218Z,1982.00
2023-06-11T00:48:43.166Z,1972.00
2023-06-11T00:49:43.167Z,1980.00
2023-06-11T00:50:43.182Z,1977.00
2023-06-11T00:51:43.194Z,1978.00
2023-06-11T00:52:43.224Z,1966.00
2023-06-11T00:53:43.225Z,1975.00
2023-06-11T00:54:43.264Z,1971.00
2023-06-11T00:55:43.259Z,1974.00
2023-06-11T00:56:43.289Z,1980.00
2023-06-11T00:57:43.285Z,1975.00
2023-06-11T00:58:43.329Z,1981.00
2023-06-11T00:59:43.315Z,1984.00
2023-06-11T01:00:43.371Z,1996.00
2023-06-11T01:01:43.414Z,1995.00
2023-06-11T01:02:43.408Z,2001.00
2023-06-11T01:03:43.368Z,2000.00
2023-06-11T01:04:43.462Z,1982.00
2023-06-11T01:05:43.435Z,1978.00
2023-06-11T01:06:43.412Z,1971.00
2023-06-11T01:07:43.427Z,1967.00
2023-06-11T01:08:43.450Z,1961.00
2023-06-11T01:09:43.468Z,1973.00
2023-06-11T01:10:43.465Z,1977.00
2023-06-11T01:11:43.468Z,1979.00
2023-06-11T01:12:43.488Z,1967.00
2023-06-11T01:13:43.502Z,1966.00
2023-06-11T01:14:43.554Z,1968.00
2023-06-11T01:15:43.542Z,1974.00
2023-06-11T01:16:43.573Z,1973.00
2023-06-11T01:17:43.641Z,1976.00
2023-06-11T01:18:43.584Z,1988.00
2023-06-11T01:19:43.605Z,1977.00
2023-06-11T01:20:43.625Z,1966.00
2023-06-11T01:21:43.624Z,1970.00
2023-06-11T01:22:43.642Z,1985.00
2023-06-11T01:23:43.691Z,1998.00
2023-06-11T01:24:43.700Z,2003.00
2023-06-11T01:25:43.677Z,2012.00
2023-06-11T01:26:43.717Z,2015.00
2023-06-11T01:27:43.718Z,2018.00
2023-06-11T01:28:43.732Z,2012.00
2023-06-11T01:29:43.775Z,2005.00
2023-06-11T01:30:43.735Z,2016.00
2023-06-11T01:31:43.881Z,2021.00
2023-06-11T01:32:43.842Z,2021.00
2023-06-11T01:33:43.791Z,2021.00
2023-06-11T01:34:43.809Z,2011.00
2023-06-11T01:35:43.812Z,2009.00
2023-06-11T01:36:43.812Z,2010.00
2023-06-11T01:37:43.840Z,1995.00
2023-06-11T01:38:43.867Z,1990.00
2023-06-11T01:39:43.850Z,1992.00
2023-06-11T01:40:43.857Z,1990.00
2023-06-11T01:41:43.876Z,1989.00
2023-06-11T01:42:43.897Z,1990.00
2023-06-11T01:43:43.878Z,1982.00
2023-06-11T01:44:43.888Z,1969.00
2023-06-11T01:45:43.925Z,1984.00
2023-06-11T01:46:43.988Z,1980.00
2023-06-11T01:47:43.954Z,1968.00
2023-06-11T01:48:43.944Z,1973.00
2023-06-11T01:49:43.942Z,1981.00
2023-06-11T01:50:43.953Z,1973.00
2023-06-11T01:51:43.968Z,1993.00
2023-06-11T01:52:43.963Z,1981.00
2023-06-11T01:53:44.013Z,1973.00
2023-06-11T01:54:43.988Z,1979.00
2023-06-11T01:55:44.101Z,1975.00
2023-06-11T01:56:44.013Z,1981.00
2023-06-11T01:57:44.006Z,1983.00
2023-06-11T01:58:44.029Z,1991.00
2023-06-11T01:59:44.028Z,2003.00
2023-06-11T02:00:44.038Z,2009.00
2023-06-11T02:01:44.140Z,2013.00
2023-06-11T02:02:44.111Z,2010.00
2023-06-11T02:03:44.168Z,2016.00
2023-06-11T02:04:44.082Z,2022.00
2023-06-11T02:05:44.094Z,2026.00
2023-06-11T02:06:44.100Z,2031.00
2023-06-11T02:07:44.118Z,2032.00
2023-06-11T02:08:44.132Z,2034.00
2023-06-11T02:09:44.139Z,2032.00
2023-06-11T02:10:44.173Z,2033.00
2023-06-11T02:11:44.155Z,2042.00
2023-06-11T02:12:44.183Z,2040.00
2023-06-11T02:13:44.190Z,2030.00
2023-06-11T02:14:44.202Z,2029.00
2023-06-11T02:15:44.224Z,2023.00
2023-06-11T02:16:44.272Z,2024.00
2023-06-11T02:17:44.278Z,2033.00
2023-06-11T02:18:44.252Z,2020.00
2023-06-11T02:19:44.259Z,2025.00
2023-06-11T02:20:44.267Z,2016.00
2023-06-11T02:21:44.314Z,2017.00
2023-06-11T02:22:44.318Z,2013.00
2023-06-11T02:23:44.359Z,2008.00
2023-06-11T02:24:44.361Z,2008.00
2023-06-11T02:25:44.366Z,2000.00
2023-06-11T02:26:44.380Z,1991.00
2023-06-11T02:27:44.383Z,2001.00
2023-06-11T02:28:44.421Z,1981.00
2023-06-11T02:29:44.433Z,1985.00
2023-06-11T02:30:44.462Z,1973.00
2023-06-11T02:31:44.480Z,1974.00
2023-06-11T02:32:44.554Z,1974.00
2023-06-11T02:33:44.478Z,1951.00
2023-06-11T02:34:44.520Z,1953.00
2023-06-11T02:35:44.546Z,1953.00
2023-06-11T02:36:44.507Z,1945.00
2023-06-11T02:37:44.541Z,1935.00
2023-06-11T02:38:44.550Z,1931.00
2023-06-11T02:39:44.560Z,1937.00
2023-06-11T02:40:44.554Z,1919.00
2023-06-11T02:41:44.570Z,1900.00
2023-06-11T02:42:44.576Z,1900.00
2023-06-11T02:43:44.619Z,1906.00
2023-06-11T02:44:44.645Z,1907.00
2023-06-11T02:45:44.649Z,1905.00
2023-06-11T02:46:44.671Z,1910.00
2023-06-11T02:47:44.681Z,1919.00
2023-06-11T02:48:44.693Z,1921.00
2023-06-11T02:49:44.692Z,1924.00
2023-06-11T02:50:44.722Z,1915.00
2023-06-11T02:51:44.727Z,1913.00
2023-06-11T02:52:44.740Z,1899.00
2023-06-11T02:53:44.762Z,1900.00
2023-06-11T02:54:44.789Z,1893.00
2023-06-11T02:55:44.770Z,1905.00
2023-06-11T02:56:44.814Z,1907.00
2023-06-11T02:57:44.813Z,1907.00
2023-06-11T02:58:44.830Z,1902.00
2023-06-11T02:59:44.842Z,1891.00
2023-06-11T03:00:44.842Z,1886.00
2023-06-11T03:01:44.940Z,1902.00
2023-06-11T03:02:44.903Z,1903.00
2023-06-11T03:03:44.931Z,1902.00
2023-06-11T03:04:44.915Z,1891.00
2023-06-11T03:05:44.925Z,1893.00
2023-06-11T03:06:44.937Z,1890.00
2023-06-11T03:07:44.953Z,1897.00
2023-06-11T03:08:44.981Z,1897.00
2023-06-11T03:09:44.972Z,1903.00
2023-06-11T03:10:45.000Z,1905.00
2023-06-11T03:11:45.037Z,1907.00
2023-06-11T03:12:45.025Z,1901.00
2023-06-11T03:13:45.035Z,1904.00
2023-06-11T03:14:45.049Z,1904.00
2023-06-11T03:15:45.087Z,1908.00
2023-06-11T03:16:45.074Z,1906.00
2023-06-11T03:17:45.119Z,1904.00
2023-06-11T03:18:45.107Z,1909.00
2023-06-11T03:19:45.112Z,1912.00
2023-06-11T03:20:45.131Z,1909.00
2023-06-11T03:21:45.159Z,1913.00
2023-06-11T03:22:45.172Z,1908.00
2023-06-11T03:23:45.220Z,1912.00
2023-06-11T03:24:45.209Z,1918.00
2023-06-11T03:25:45.244Z,1927.00
2023-06-11T03:26:45.238Z,1930.00
2023-06-11T03:27:45.255Z,1921.00
2023-06-11T03:28:45.297Z,1919.00
2023-06-11T03:29:45.314Z,1907.00
2023-06-11T03:30:45.345Z,1901.00
2023-06-11T03:31:45.378Z,1904.00
2023-06-11T03:32:45.388Z,1909.00
2023-06-11T03:33:45.391Z,1908.00
2023-06-11T03:34:45.413Z,1908.00
2023-06-11T03:35:45.431Z,1910.00
2023-06-11T03:36:45.466Z,1919.00
2023-06-11T03:37:45.476Z,1926.00
2023-06-11T03:38:45.506Z,1923.00
2023-06-11T03:39:45.520Z,1916.00
2023-06-11T03:40:45.532Z,1916.00
2023-06-11T03:41:45.562Z,1919.00
2023-06-11T03:42:45.555Z,1917.00
2023-06-11T03:43:45.591Z,1924.00
2023-06-11T03:44:45.617Z,1929.00
2023-06-11T03:45:45.648Z,1924.00
2023-06-11T03:46:45.716Z,1925.00
2023-06-11T03:47:45.712Z,1918.00
2023-06-11T03:48:45.683Z,1909.00
2023-06-11T03:49:45.724Z,1898.00
2023-06-11T03:50:45.767Z,1906.00
2023-06-11T03:51:45.749Z,1903.00
2023-06-11T03:52:45.777Z,1894.00
2023-06-11T03:53:45.803Z,1902.00
2023-06-11T03:54:45.828Z,1907.00
2023-06-11T03:55:45.851Z,1901.00
2023-06-11T03:56:45.867Z,1901.00
2023-06-11T03:57:45.884Z,1892.00
2023-06-11T03:58:45.893Z,1894.00
2023-06-11T03:59:45.930Z,1897.00
2023-06-11T04:00:45.942Z,1886.00
2023-06-11T04:01:46.006Z,1897.00
2023-06-11T04:02:46.090Z,1897.00
2023-06-11T04:03:46.049Z,1889.00
2023-06-11T04:04:46.098Z,1879.00
2023-06-11T04:05:46.069Z,1884.00
2023-06-11T04:06:46.094Z,1880.00
2023-06-11T04:07:46.133Z,1878.00
2023-06-11T04:08:46.169Z,1882.00
2023-06-11T04:09:46.194Z,1878.00
2023-06-11T04:10:46.248Z,1871.00
2023-06-11T04:11:46.251Z,1867.00
2023-06-11T04:12:46.263Z,1881.00
2023-06-11T04:13:46.306Z,1877.00
2023-06-11T04:14:46.321Z,1885.00
2023-06-11T04:15:46.373Z,1876.00
2023-06-11T04:16:46.430Z,1884.00
2023-06-11T04:17:46.464Z,1879.00
2023-06-11T04:18:46.454Z,1879.00
2023-06-11T04:19:46.486Z,1885.00
2023-06-11T04:20:46.503Z,1893.00
2023-06-11T04:21:46.529Z,1890.00
2023-06-11T04:22:46.579Z,1886.00
2023-06-11T04:23:46.645Z,1886.00
2023-06-11T04:24:46.629Z,1886.00
2023-06-11T04:25:46.635Z,1884.00
2023-06-11T04:26:46.694Z,1887.00
2023-06-11T04:27:46.687Z,1893.00
2023-06-11T04:28:46.741Z,1887.00
2023-06-11T04:29:46.757Z,1875.00
2023-06-11T04:30:46.785Z,1873.00
2023-06-11T04:31:46.914Z,1869.00
2023-06-11T04:32:46.890Z,1861.00
2023-06-11T04:33:46.861Z,1859.00
2023-06-11T04:34:46.873Z,1865.00
2023-06-11T04:35:46.903Z,1853.00
2023-06-11T04:36:46.952Z,1844.00
2023-06-11T04:37:46.979Z,1848.00
2023-06-11T04:38:46.983Z,1857.00
2023-06-11T04:39:47.009Z,1842.00
2023-06-11T04:40:47.059Z,1841.00
2023-06-11T04:41:47.073Z,1838.00
2023-06-11T04:42:47.094Z,1840.00
2023-06-11T04:43:47.112Z,1824.00
2023-06-11T04:44:47.157Z,1811.00
2023-06-11T04:45:47.171Z,1808.00
2023-06-11T04:46:47.306Z,1816.00
2023-06-11T04:47:47.284Z,1828.00
2023-06-11T04:48:47.245Z,1825.00
2023-06-11T04:49:47.269Z,1826.00
2023-06-11T04:50:47.295Z,1829.00
2023-06-11T04:51:47.301Z,1830.00
2023-06-11T04:52:47.324Z,1836.00
2023-06-11T04:53:47.363Z,1848.00
2023-06-11T04:54:47.376Z,1845.00
2023-06-11T04:55:47.410Z,1831.00
2023-06-11T04:56:47.438Z,1840.00
2023-06-11T04:57:47.448Z,1846.00
2023-06-11T04:58:47.465Z,1847.00
2023-06-11T04:59:47.510Z,1848.00
2023-06-11T05:00:47.551Z,1848.00
2023-06-11T05:01:47.763Z,1854.00
2023-06-11T05:02:47.590Z,1847.00
2023-06-11T05:03:49.166Z,1846.00
2023-06-11T05:04:47.654Z,1850.00
2023-06-11T05:05:47.719Z,1848.00
2023-06-11T05:06:47.663Z,1847.00
2023-06-11T05:07:47.680Z,1847.00
2023-06-11T05:08:47.707Z,1846.00
2023-06-11T05:09:47.744Z,1838.00
2023-06-11T05:10:47.762Z,1846.00
2023-06-11T05:11:47.786Z,1843.00
2023-06-11T05:12:47.829Z,1832.00
2023-06-11T05:13:47.837Z,1823.00
2023-06-11T05:14:47.845Z,1834.00
2023-06-11T05:15:47.866Z,1829.00
2023-06-11T05:16:47.985Z,1834.00
2023-06-11T05:17:48.964Z,1827.00
2023-06-11T05:18:47.957Z,1824.00
2023-06-11T05:19:47.986Z,1830.00
2023-06-11T05:20:47.993Z,1838.00
2023-06-11T05:21:48.021Z,1846.00
2023-06-11T05:22:48.051Z,1844.00
2023-06-11T05:23:48.092Z,1832.00
2023-06-11T05:24:48.078Z,1824.00
2023-06-11T05:25:48.115Z,1817.00
2023-06-11T05:26:48.144Z,1819.00
2023-06-11T05:27:48.164Z,1819.00
2023-06-11T05:28:48.180Z,1824.00
2023-06-11T05:29:48.210Z,1834.00
2023-06-11T05:30:48.226Z,1841.00
2023-06-11T05:31:48.280Z,1843.00
2023-06-11T05:32:48.287Z,1850.00
2023-06-11T05:33:48.328Z,1844.00
2023-06-11T05:34:48.317Z,1842.00
2023-06-11T05:35:48.320Z,1828.00
2023-06-11T05:36:48.339Z,1821.00
2023-06-11T05:37:48.356Z,1824.00
2023-06-11T05:38:48.395Z,1819.00
2023-06-11T05:39:48.443Z,1815.00
2023-06-11T05:40:48.448Z,1819.00
2023-06-11T05:41:48.468Z,1811.00
2023-06-11T05:42:48.510Z,1809.00
2023-06-11T05:43:48.520Z,1803.00
2023-06-11T05:44:48.546Z,1808.00
2023-06-11T05:45:48.598Z,1817.00
2023-06-11T05:46:48.656Z,1814.00
2023-06-11T05:47:48.706Z,1823.00
2023-06-11T05:48:48.598Z,1824.00
2023-06-11T05:49:48.629Z,1837.00
2023-06-11T05:50:48.675Z,1832.00
2023-06-11T05:51:48.651Z,1822.00
2023-06-11T05:52:48.687Z,1812.00
2023-06-11T05:53:48.690Z,1809.00
2023-06-11T05:54:48.704Z,1806.00
2023-06-11T05:55:48.730Z,1797.00
2023-06-11T05:56:48.746Z,1795.00
2023-06-11T05:57:48.739Z,1795.00
2023-06-11T05:58:48.765Z,1800.00
2023-06-11T05:59:48.815Z,1796.00
2023-06-11T06:00:48.775Z,1799.00
2023-06-11T06:01:48.782Z,1805.00
2023-06-11T06:02:48.971Z,1806.00
2023-06-11T06:03:48.893Z,1811.00
2023-06-11T06:04:48.886Z,1803.00
2023-06-11T06:05:48.841Z,1793.00
2023-06-11T06:06:48.833Z,1775.00
2023-06-11T06:07:48.844Z,1756.00
2023-06-11T06:08:48.858Z,1752.00
2023-06-11T06:09:48.853Z,1738.00
2023-06-11T06:10:48.861Z,1748.00
2023-06-11T06:11:48.860Z,1772.00
2023-06-11T06:12:48.881Z,1785.00
2023-06-11T06:13:48.859Z,1800.00
2023-06-11T06:14:48.877Z,1819.00
2023-06-11T06:15:48.948Z,1843.00
2023-06-11T06:16:48.992Z,1871.00
2023-06-11T06:17:48.914Z,1905.00
2023-06-11T06:18:48.906Z,1937.00
2023-06-11T06:19:48.897Z,1951.00
2023-06-11T06:20:48.912Z,1956.00
2023-06-11T06:21:48.926Z,1963.00
2023-06-11T06:22:48.914Z,1963.00
2023-06-11T06:23:48.967Z,1962.00
2023-06-11T06:24:48.951Z,1966.00
2023-06-11T06:25:48.976Z,1962.00
2023-06-11T06:26:48.923Z,1961.00
2023-06-11T06:27:48.929Z,1955.00
2023-06-11T06:28:48.940Z,1946.00
2023-06-11T06:29:48.923Z,1945.00
2023-06-11T06:30:48.946Z,1942.00
2023-06-11T06:31:48.958Z,1940.00
2023-06-11T06:32:48.991Z,1937.00
2023-06-11T06:33:48.916Z,1932.00
2023-06-11T06:34:48.920Z,1929.00
2023-06-11T06:35:48.928Z,1929.00
2023-06-11T06:36:48.945Z,1924.00
2023-06-11T06:37:48.929Z,1918.00
2023-06-11T06:38:48.943Z,1909.00
2023-06-11T06:39:48.948Z,1916.00
2023-06-11T06:40:48.946Z,1913.00
2023-06-11T06:41:48.951Z,1907.00
2023-06-11T06:42:48.943Z,1906.00
2023-06-11T06:43:50.295Z,1903.00
2023-06-11T06:44:49.016Z,1903.00
2023-06-11T06:45:49.023Z,1897.00
2023-06-11T06:46:49.020Z,1893.00
2023-06-11T06:47:49.133Z,1889.00
2023-06-11T06:48:49.155Z,1889.00
2023-06-11T06:49:49.012Z,1881.00
2023-06-11T06:50:49.003Z,1878.00
2023-06-11T06:51:48.994Z,1866.00
2023-06-11T06:52:49.012Z,1866.00
2023-06-11T06:53:49.004Z,1857.00
2023-06-11T06:54:49.012Z,1851.00
2023-06-11T06:55:51.360Z,1845.00
2023-06-11T06:56:48.977Z,1846.00
2023-06-11T06:57:48.970Z,1847.00
2023-06-11T06:58:48.976Z,1848.00
2023-06-11T06:59:48.964Z,1845.00
2023-06-11T07:00:49.032Z,1839.00
2023-06-11T07:01:49.090Z,1838.00
2023-06-11T07:02:48.994Z,1836.00
2023-06-11T07:03:48.946Z,1821.00
2023-06-11T07:04:48.948Z,1823.00
2023-06-11T07:05:48.964Z,1822.00
2023-06-11T07:06:48.921Z,1818.00
2023-06-11T07:07:48.917Z,1813.00
2023-06-11T07:08:48.913Z,1811.00
2023-06-11T07:09:48.885Z,1803.00
2023-06-11T07:10:48.897Z,1803.00
2023-06-11T07:11:48.887Z,1802.00
2023-06-11T07:12:48.876Z,1799.00
2023-06-11T07:13:48.853Z,1788.00
2023-06-11T07:14:48.889Z,1788.00
2023-06-11T07:15:48.957Z,1791.00
2023-06-11T07:16:48.850Z,1776.00
2023-06-11T07:17:48.841Z,1787.00
2023-06-11T07:18:48.841Z,1772.00
2023-06-11T07:19:48.920Z,1777.00
2023-06-11T07:20:48.815Z,1771.00
2023-06-11T07:21:48.817Z,1758.00
2023-06-11T07:22:48.808Z,1768.00
2023-06-11T07:23:48.885Z,1765.00
2023-06-11T07:24:48.796Z,1756.00
2023-06-11T07:25:48.805Z,1753.00
2023-06-11T07:26:48.773Z,1750.00
2023-06-11T07:27:48.769Z,1749.00
2023-06-11T07:28:48.765Z,1748.00
2023-06-11T07:29:48.746Z,1744.00
2023-06-11T07:30:48.754Z,1746.00
2023-06-11T07:31:48.889Z,1741.00
2023-06-11T07:32:48.857Z,1735.00
2023-06-11T07:33:48.716Z,1736.00
2023-06-11T07:34:48.752Z,1733.00
2023-06-11T07:35:48.706Z,1733.00
2023-06-11T07:36:48.716Z,1734.00
2023-06-11T07:37:48.713Z,1734.00
2023-06-11T07:38:48.715Z,1721.00
2023-06-11T07:39:49.381Z,1718.00
2023-06-11T07:40:48.666Z,1717.00
2023-06-11T07:41:48.679Z,1711.00
2023-06-11T07:42:48.658Z,1708.00
2023-06-11T07:43:48.653Z,1709.00
2023-06-11T07:44:48.648Z,1715.00
2023-06-11T07:45:48.647Z,1702.00
2023-06-11T07:46:48.706Z,1701.00
2023-06-11T07:47:48.749Z,1699.00
2023-06-11T07:48:48.628Z,1700.00
2023-06-11T07:49:48.654Z,1682.00
2023-06-11T07:50:48.597Z,1690.00
2023-06-11T07:51:48.592Z,1691.00
2023-06-11T07:52:48.610Z,1686.00
2023-06-11T07:53:48.591Z,1697.00
2023-06-11T07:54:48.570Z,1691.00
2023-06-11T07:55:48.569Z,1690.00
2023-06-11T07:56:48.575Z,1689.00
2023-06-11T07:57:48.564Z,1688.00
2023-06-11T07:58:48.573Z,1685.00
2023-06-11T07:59:48.537Z,1681.00
2023-06-11T08:00:48.534Z,1677.00
2023-06-11T08:01:48.639Z,1681.00
2023-06-11T08:02:50.169Z,1670.00
2023-06-11T08:03:48.524Z,1680.00
2023-06-11T08:04:48.498Z,1665.00
2023-06-11T08:05:48.571Z,1671.00
2023-06-11T08:06:48.485Z,1671.00
2023-06-11T08:07:48.497Z,1674.00
2023-06-11T08:08:48.475Z,1672.00
2023-06-11T08:09:48.483Z,1674.00
2023-06-11T08:10:48.481Z,1669.00
2023-06-11T08:11:48.469Z,1663.00
2023-06-11T08:12:48.483Z,1656.00
2023-06-11T08:13:48.459Z,1662.00
2023-06-11T08:14:48.445Z,1664.00
2023-06-11T08:15:48.432Z,1652.00
2023-06-11T08:16:48.435Z,1644.00
2023-06-11T08:17:48.441Z,1645.00
2023-06-11T08:18:48.424Z,1644.00
2023-06-11T08:19:48.415Z,1645.00
2023-06-11T08:20:48.418Z,1647.00
2023-06-11T08:21:48.431Z,1648.00
2023-06-11T08:22:48.396Z,1630.00
2023-06-11T08:23:48.413Z,1640.00
2023-06-11T08:24:48.366Z,1641.00
2023-06-11T08:25:48.380Z,1629.00
2023-06-11T08:26:48.374Z,1648.00
2023-06-11T08:27:48.362Z,1641.00
2023-06-11T08:28:48.354Z,1644.00
2023-06-11T08:29:48.339Z,1644.00
2023-06-11T08:30:48.374Z,1633.00
2023-06-11T08:31:48.371Z,1628.00
2023-06-11T08:32:48.358Z,1623.00
2023-06-11T08:33:48.327Z,1640.00
2023-06-11T08:34:48.328Z,1632.00
2023-06-11T08:35:48.321Z,1624.00
2023-06-11T08:36:48.314Z,1626.00
2023-06-11T08:37:48.289Z,1620.00
2023-06-11T08:38:48.315Z,1627.00
2023-06-11T08:39:48.293Z,1629.00
2023-06-11T08:40:48.277Z,1626.00
2023-06-11T08:41:48.285Z,1631.00
2023-06-11T08:42:48.313Z,1625.00
2023-06-11T08:43:48.270Z,1625.00
2023-06-11T08:44:48.262Z,1625.00
2023-06-11T08:45:48.257Z,1615.00
2023-06-11T08:46:48.401Z,1614.00
2023-06-11T08:47:48.247Z,1610.00
2023-06-11T08:48:48.232Z,1615.00
2023-06-11T08:49:48.225Z,1611.00
2023-06-11T08:50:48.212Z,1614.00
2023-06-11T08:51:48.226Z,1611.00
2023-06-11T08:52:48.201Z,1595.00
2023-06-11T08:53:48.192Z,1604.00
2023-06-11T08:54:48.177Z,1606.00
2023-06-11T08:55:48.182Z,1606.00
2023-06-11T08:56:48.167Z,1584.00
2023-06-11T08:57:48.169Z,1586.00
2023-06-11T08:58:48.151Z,1589.00
2023-06-11T08:59:48.150Z,1586.00
2023-06-11T09:00:49.096Z,1586.00
2023-06-11T09:01:48.177Z,1561.00
2023-06-11T09:02:48.171Z,1570.00
2023-06-11T09:03:48.170Z,1571.00
2023-06-11T09:04:48.125Z,1573.00
2023-06-11T09:05:48.106Z,1570.00
2023-06-11T09:06:48.094Z,1567.00
2023-06-11T09:07:48.084Z,1561.00
2023-06-11T09:08:48.094Z,1551.00
2023-06-11T09:09:48.089Z,1560.00
2023-06-11T09:10:48.072Z,1558.00
2023-06-11T09:11:48.062Z,1545.00
2023-06-11T09:12:48.075Z,1552.00
2023-06-11T09:13:48.052Z,1547.00
2023-06-11T09:14:48.036Z,1531.00
2023-06-11T09:15:48.091Z,1529.00
2023-06-11T09:16:48.130Z,1523.00
2023-06-11T09:17:48.148Z,1521.00
2023-06-11T09:18:48.011Z,1515.00
2023-06-11T09:19:48.020Z,1516.00
2023-06-11T09:20:48.007Z,1512.00
2023-06-11T09:21:48.003Z,1516.00
2023-06-11T09:22:48.008Z,1510.00
2023-06-11T09:23:48.039Z,1509.00
2023-06-11T09:24:47.982Z,1499.00
2023-06-11T09:25:47.967Z,1507.00
2023-06-11T09:26:47.994Z,1500.00
2023-06-11T09:27:48.129Z,1502.00
2023-06-11T09:28:50.163Z,1499.00
2023-06-11T09:29:48.024Z,1505.00
2023-06-11T09:30:48.080Z,1504.00
2023-06-11T09:31:48.052Z,1497.00
2023-06-11T09:32:48.193Z,1483.00
2023-06-11T09:33:48.050Z,1482.00
2023-06-11T09:34:48.073Z,1471.00
2023-06-11T09:35:48.102Z,1480.00
2023-06-11T09:36:48.140Z,1483.00
2023-06-11T09:37:48.139Z,1475.00
2023-06-11T09:38:48.145Z,1457.00
2023-06-11T09:39:48.163Z,1448.00
2023-06-11T09:40:48.165Z,1451.00
2023-06-11T09:41:48.177Z,1455.00
2023-06-11T09:42:48.209Z,1447.00
2023-06-11T09:43:48.234Z,1454.00
2023-06-11T09:44:48.242Z,1441.00
2023-06-11T09:45:48.333Z,1442.00
2023-06-11T09:46:48.272Z,1447.00
2023-06-11T09:47:48.374Z,1439.00
2023-06-11T09:48:48.321Z,1437.00
2023-06-11T09:49:48.349Z,1441.00
2023-06-11T09:50:48.347Z,1428.00
2023-06-11T09:51:48.341Z,1442.00
2023-06-11T09:52:48.373Z,1437.00
2023-06-11T09:53:48.343Z,1419.00
2023-06-11T09:54:48.353Z,1412.00
2023-06-11T09:55:57.039Z,1418.00
2023-06-11T09:56:49.369Z,1418.00
2023-06-11T09:57:48.364Z,1419.00
2023-06-11T09:58:48.370Z,1419.00
2023-06-11T09:59:48.346Z,1413.00
2023-06-11T10:00:48.353Z,1416.00
2023-06-11T10:01:48.584Z,1412.00
2023-06-11T10:02:48.358Z,1415.00
2023-06-11T10:03:48.353Z,1412.00
2023-06-11T10:04:48.317Z,1409.00
2023-06-11T10:05:48.302Z,1412.00
2023-06-11T10:06:48.281Z,1407.00
2023-06-11T10:07:48.276Z,1412.00
2023-06-11T10:08:48.282Z,1401.00
2023-06-11T10:09:48.256Z,1402.00
2023-06-11T10:10:48.274Z,1401.00
2023-06-11T10:11:48.270Z,1403.00
2023-06-11T10:12:48.239Z,1410.00
2023-06-11T10:13:48.248Z,1405.00
2023-06-11T10:14:48.221Z,1408.00
2023-06-11T10:15:48.243Z,1411.00
2023-06-11T10:16:48.218Z,1412.00
2023-06-11T10:17:48.292Z,1398.00
2023-06-11T10:18:48.192Z,1404.00
2023-06-11T10:19:48.192Z,1393.00
2023-06-11T10:20:48.189Z,1403.00
2023-06-11T10:21:48.184Z,1399.00
2023-06-11T10:22:48.169Z,1398.00
2023-06-11T10:23:48.188Z,1400.00
2023-06-11T10:24:48.170Z,1396.00
2023-06-11T10:25:48.170Z,1385.00
2023-06-11T10:26:48.201Z,1394.00
2023-06-11T10:27:48.132Z,1393.00
2023-06-11T10:28:48.136Z,1383.00
2023-06-11T10:29:48.125Z,1388.00
2023-06-11T10:30:48.123Z,1384.00
2023-06-11T10:31:48.110Z,1391.00
2023-06-11T10:32:48.143Z,1377.00
2023-06-11T10:33:48.127Z,1367.00
2023-06-11T10:34:48.219Z,1377.00
2023-06-11T10:35:48.100Z,1382.00
2023-06-11T10:36:48.073Z,1387.00
2023-06-11T10:37:48.075Z,1389.00
2023-06-11T10:38:48.076Z,1384.00
2023-06-11T10:39:48.052Z,1373.00
2023-06-11T10:40:48.054Z,1381.00
2023-06-11T10:41:48.044Z,1373.00
2023-06-11T10:42:48.047Z,1380.00
2023-06-11T10:43:48.032Z,1374.00
2023-06-11T10:44:48.033Z,1379.00
2023-06-11T10:45:49.972Z,1376.00
2023-06-11T10:46:48.062Z,1369.00
2023-06-11T10:47:48.069Z,1365.00
2023-06-11T10:48:48.036Z,1370.00
2023-06-11T10:49:48.018Z,1372.00
2023-06-11T10:50:48.029Z,1354.00
2023-06-11T10:51:47.999Z,1343.00
2023-06-11T10:52:48.026Z,1330.00
2023-06-11T10:53:48.015Z,1331.00
2023-06-11T10:54:47.998Z,1339.00
2023-06-11T10:55:48.014Z,1324.00
2023-06-11T10:56:47.991Z,1341.00
2023-06-11T10:57:48.019Z,1351.00
2023-06-11T10:58:48.004Z,1339.00
2023-06-11T10:59:48.029Z,1336.00
2023-06-11T11:00:48.071Z,1332.00
2023-06-11T11:01:48.050Z,1343.00
2023-06-11T11:02:48.048Z,1334.00
2023-06-11T11:03:48.174Z,1327.00
2023-06-11T11:04:47.972Z,1329.00
2023-06-11T11:05:47.996Z,1319.00
2023-06-11T11:06:47.987Z,1330.00
2023-06-11T11:07:47.984Z,1320.00
2023-06-11T11:08:47.994Z,1321.00
2023-06-11T11:09:48.007Z,1321.00
2023-06-11T11:10:48.004Z,1300.00
2023-06-11T11:11:48.033Z,1298.00
2023-06-11T11:12:48.066Z,1298.00
2023-06-11T11:13:48.034Z,1303.00
2023-06-11T11:14:48.051Z,1296.00
2023-06-11T11:15:48.042Z,1301.00
2023-06-11T11:16:48.082Z,1281.00
2023-06-11T11:17:48.111Z,1286.00
2023-06-11T11:18:48.068Z,1290.00
2023-06-11T11:19:48.082Z,1268.00
2023-06-11T11:20:48.069Z,1261.00
2023-06-11T11:21:48.076Z,1245.00
2023-06-11T11:22:48.074Z,1245.00
2023-06-11T11:23:48.120Z,1230.00
2023-06-11T11:24:48.099Z,1210.00
2023-06-11T11:25:48.099Z,1192.00
2023-06-11T11:26:48.098Z,1183.00
2023-06-11T11:27:48.116Z,1178.00
2023-06-11T11:28:48.091Z,1184.00
2023-06-11T11:29:48.102Z,1182.00
2023-06-11T11:30:48.120Z,1179.00
2023-06-11T11:31:48.139Z,1166.00
2023-06-11T11:32:48.169Z,1148.00
2023-06-11T11:33:48.104Z,1137.00
2023-06-11T11:34:48.119Z,1128.00
2023-06-11T11:35:48.109Z,1119.00
2023-06-11T11:36:48.099Z,1093.00
2023-06-11T11:37:48.145Z,1079.00
2023-06-11T11:38:48.112Z,1074.00
2023-06-11T11:39:48.141Z,1076.00
2023-06-11T11:40:48.141Z,1052.00
2023-06-11T11:41:48.137Z,1042.00
2023-06-11T11:42:48.135Z,1009.00
2023-06-11T11:43:48.142Z,976.00
2023-06-11T11:44:48.143Z,922.00
2023-06-11T11:45:48.201Z,923.00
2023-06-11T11:46:48.198Z,938.00
2023-06-11T11:47:48.177Z,930.00
2023-06-11T11:48:48.147Z,917.00
2023-06-11T11:49:48.142Z,907.00
2023-06-11T11:50:48.144Z,913.00
2023-06-11T11:51:48.145Z,911.00
2023-06-11T11:52:48.116Z,893.00
2023-06-11T11:53:48.114Z,882.00
2023-06-11T11:54:48.101Z,860.00
2023-06-11T11:56:04.286Z,882.00
2023-06-11T11:56:49.108Z,883.00
2023-06-11T11:57:48.077Z,890.00
2023-06-11T11:58:48.066Z,891.00
2023-06-11T11:59:48.059Z,891.00
2023-06-11T12:00:48.079Z,889.00
2023-06-11T12:01:48.061Z,891.00
2023-06-11T12:02:48.184Z,833.00
2023-06-11T12:03:48.183Z,783.00
2023-06-11T12:04:49.148Z,798.00
2023-06-11T12:05:48.057Z,791.00
2023-06-11T12:06:48.008Z,779.00